Airfield :
LOGIN :

Register | Disclaimer

   EN    FR    IT 

 










Legend :    VFR   Marginal VFR   IFR   Intensive IFR   Very Intensive IFR
Visi :
Ceiling :
>= 8 km
>= 3000ft
5 to 8 km
1000 to 3000 ft
1500m to 5 km
500 to 1000 ft
800 to 1500m
200 to 500 ft
< 800m
< 200 ft
Symbols :   Thunderstorms  Fog  Heavy snow  Heavy precipitations  Wind > 20 kt
SIGMETs :     Misc.  Thunderstorms  Icing  Turbulence  Mountain Waves  Volcanic Ashes






- Airport Elevation : 13 ft
- IATA code : SNR


LFRZ - St-Nazaire

CURRENT METAR :
  • 291700Z AUTO 19005KT 9999 FEW036 09/07 Q1017 NOSIG

EXPIRED METARs :
  • 291630Z AUTO 20004KT CAVOK 10/08 Q1017 NOSIG
  • 291600Z AUTO 20005KT 9999 FEW038 11/08 Q1017 NOSIG
  • 291530Z AUTO 20007KT 9999 FEW037 11/08 Q1017 NOSIG
  • 291500Z AUTO 20007KT CAVOK 11/07 Q1017 NOSIG

TAF TAF LFRZ
Valid from the 29 at 18:00 until the 30 at 18:00 UTC


291700Z 2918/3018 21010KT 9999 SCT025 SCT050
BECMG 2921/2924 18015G25KT 4000 -RA BKN008 OVC020
TEMPO 3003/3009 2000 RA OVC003
BECMG 3005/3008 24015G25KT
BECMG 3016/3018 24010KT
TEMPO 3015/3018 2000 -DZ BKN002



MET'MAP, your aeronautical weather chart ! - Copyright ORBIFLY December 2007 - Disclaimer

ORBIFLY MET'MAP TEAM :

Programming & Development : Alexandra Zaïnal
Concept & original design : Baudouin d'Aumeries
Assistance for programming : Marc-Olivier Méhu
Technical & hardware support : Manuel Goepfert

Contact : metmap@orbifly.com




SOURCES & CREDITS :

   NOAA